createdAt,value
2018-04-29T00:01:41.489Z,4.30
2018-04-29T00:04:08.941Z,5.17
2018-04-29T00:06:36.429Z,5.57
2018-04-29T00:09:03.889Z,3.63
2018-04-29T00:11:31.357Z,4.27
2018-04-29T00:13:58.802Z,5.90
2018-04-29T00:16:26.281Z,5.17
2018-04-29T00:18:53.733Z,5.00
2018-04-29T00:21:21.210Z,5.57
2018-04-29T00:23:48.665Z,4.60
2018-04-29T00:26:16.145Z,5.50
2018-04-29T00:28:43.630Z,4.83
2018-04-29T00:31:11.102Z,4.07
2018-04-29T00:33:38.628Z,5.23
2018-04-29T00:36:06.158Z,4.93
2018-04-29T00:38:33.681Z,6.73
2018-04-29T00:41:01.209Z,5.40
2018-04-29T00:43:28.684Z,5.77
2018-04-29T00:45:56.182Z,5.20
2018-04-29T00:48:23.668Z,6.80
2018-04-29T00:50:51.139Z,5.50
2018-04-29T00:53:18.664Z,3.90
2018-04-29T00:55:46.143Z,4.47
2018-04-29T00:58:13.637Z,8.50
2018-04-29T01:00:41.093Z,5.27
2018-04-29T01:03:08.580Z,3.93
2018-04-29T01:05:36.048Z,4.37
2018-04-29T01:08:03.530Z,4.20
2018-04-29T01:10:30.986Z,4.47
2018-04-29T01:12:58.460Z,5.67
2018-04-29T01:15:25.926Z,3.93
2018-04-29T01:17:53.408Z,3.33
2018-04-29T01:20:20.861Z,4.77
2018-04-29T01:22:49.033Z,6.10
2018-04-29T01:25:16.489Z,4.03
2018-04-29T01:27:43.956Z,5.20
2018-04-29T01:30:11.415Z,5.47
2018-04-29T01:32:38.886Z,3.57
2018-04-29T01:35:06.348Z,4.03
2018-04-29T01:37:33.817Z,4.90
2018-04-29T01:40:01.277Z,4.83
2018-04-29T01:42:28.747Z,4.17
2018-04-29T01:44:56.204Z,4.53
2018-04-29T01:47:23.678Z,5.03
2018-04-29T01:49:51.149Z,3.73
2018-04-29T01:52:18.617Z,7.03
2018-04-29T01:54:46.077Z,5.80
2018-04-29T01:57:13.558Z,3.27
2018-04-29T01:59:41.016Z,5.53
2018-04-29T02:02:08.493Z,4.67
2018-04-29T02:04:35.948Z,3.80
2018-04-29T02:07:03.425Z,4.10
2018-04-29T02:09:30.877Z,3.60
2018-04-29T02:11:58.357Z,5.37
2018-04-29T02:14:25.814Z,4.33
2018-04-29T02:16:54.398Z,3.67
2018-04-29T02:19:21.910Z,4.43
2018-04-29T02:21:49.414Z,4.33
2018-04-29T02:24:16.944Z,5.37
2018-04-29T02:26:44.408Z,5.90
2018-04-29T02:29:11.882Z,5.17
2018-04-29T02:31:39.337Z,7.27
2018-04-29T02:34:07.289Z,5.70
2018-04-29T02:36:34.745Z,4.23
2018-04-29T02:39:02.218Z,4.70
2018-04-29T02:41:29.681Z,5.90
2018-04-29T02:43:57.159Z,4.63
2018-04-29T02:46:24.614Z,4.03
2018-04-29T02:48:52.089Z,5.37
2018-04-29T02:51:19.537Z,6.83
2018-04-29T02:53:47.005Z,4.60
2018-04-29T02:56:14.463Z,3.67
2018-04-29T02:58:41.933Z,4.53
2018-04-29T03:01:09.428Z,3.67
2018-04-29T03:03:36.922Z,5.40
2018-04-29T03:06:04.379Z,4.10
2018-04-29T03:08:31.861Z,5.57
2018-04-29T03:10:59.342Z,5.40
2018-04-29T03:13:26.826Z,4.13
2018-04-29T03:15:55.025Z,7.03
2018-04-29T03:18:22.493Z,5.20
2018-04-29T03:20:49.953Z,6.07
2018-04-29T03:23:17.425Z,3.57
2018-04-29T03:25:44.878Z,5.50
2018-04-29T03:28:12.345Z,4.23
2018-04-29T03:30:39.798Z,3.40
2018-04-29T03:33:07.273Z,5.30
2018-04-29T03:35:34.727Z,4.97
2018-04-29T03:38:02.242Z,3.47
2018-04-29T03:40:29.697Z,5.23
2018-04-29T03:42:57.159Z,5.60
2018-04-29T03:45:24.637Z,5.43
2018-04-29T03:47:52.094Z,4.83
2018-04-29T03:50:19.570Z,6.10
2018-04-29T03:52:47.034Z,4.57
2018-04-29T03:55:14.517Z,4.90
2018-04-29T03:57:53.654Z,6.07
2018-04-29T04:03:34.854Z,4.23
2018-04-29T04:06:02.310Z,6.17
2018-04-29T04:08:29.765Z,7.90
2018-04-29T04:10:57.236Z,7.53
2018-04-29T04:13:24.681Z,5.60
2018-04-29T04:15:52.157Z,4.13
2018-04-29T04:18:19.607Z,4.57
2018-04-29T04:20:47.085Z,3.47
2018-04-29T04:23:14.541Z,4.70
2018-04-29T04:25:42.007Z,3.67
2018-04-29T04:28:09.481Z,3.97
2018-04-29T04:30:37.570Z,5.50
2018-04-29T04:33:05.072Z,4.37
2018-04-29T04:35:32.566Z,4.43
2018-04-29T04:38:00.035Z,5.43
2018-04-29T04:40:27.510Z,4.67
2018-04-29T04:42:54.993Z,4.73
2018-04-29T04:45:22.470Z,4.90
2018-04-29T04:47:49.929Z,7.00
2018-04-29T04:50:17.409Z,4.80
2018-04-29T04:52:44.866Z,4.47
2018-04-29T04:55:12.349Z,3.73
2018-04-29T04:57:39.804Z,4.40
2018-04-29T05:00:07.311Z,3.70
2018-04-29T05:02:34.761Z,3.73
2018-04-29T05:05:02.226Z,4.77
2018-04-29T05:07:29.678Z,5.60
2018-04-29T05:09:57.154Z,5.43
2018-04-29T05:12:24.611Z,4.87
2018-04-29T05:14:52.100Z,4.97
2018-04-29T05:17:19.553Z,4.10
2018-04-29T05:19:47.029Z,6.33
2018-04-29T05:22:14.532Z,7.37
2018-04-29T05:24:41.945Z,6.57
2018-04-29T05:27:09.434Z,4.87
2018-04-29T05:29:36.882Z,8.93
2018-04-29T05:32:04.367Z,6.93
2018-04-29T05:34:31.814Z,5.03
2018-04-29T05:36:59.285Z,5.77
2018-04-29T05:39:26.737Z,5.67
2018-04-29T05:41:54.209Z,3.87
2018-04-29T05:44:21.672Z,4.07
2018-04-29T05:46:49.144Z,6.70
2018-04-29T05:49:16.599Z,5.53
2018-04-29T05:51:44.094Z,4.60
2018-04-29T05:54:11.550Z,4.83
2018-04-29T05:56:39.021Z,8.87
2018-04-29T05:59:06.477Z,4.37
2018-04-29T06:01:33.951Z,5.83
2018-04-29T06:04:01.406Z,6.00
2018-04-29T06:06:28.927Z,4.93
2018-04-29T06:08:56.370Z,4.27
2018-04-29T06:11:23.849Z,5.10
2018-04-29T06:13:51.657Z,6.07
2018-04-29T06:16:19.135Z,6.13
2018-04-29T06:18:46.585Z,6.10
2018-04-29T06:21:14.290Z,4.70
2018-04-29T06:23:41.755Z,5.07
2018-04-29T06:26:09.313Z,5.80
2018-04-29T06:28:36.719Z,5.33
2018-04-29T06:31:04.210Z,5.23
2018-04-29T06:33:31.717Z,6.20
2018-04-29T06:38:40.197Z,6.10
2018-04-29T06:41:07.683Z,7.00
2018-04-29T06:43:35.138Z,7.17
2018-04-29T06:46:02.620Z,6.00
2018-04-29T06:48:30.068Z,5.80
2018-04-29T06:50:57.538Z,9.13
2018-04-29T06:53:25.053Z,7.47
2018-04-29T06:55:52.493Z,9.03
2018-04-29T06:58:19.970Z,8.60
2018-04-29T07:00:47.447Z,8.40
2018-04-29T07:03:14.929Z,8.13
2018-04-29T07:05:42.386Z,6.80
2018-04-29T07:08:09.888Z,7.60
2018-04-29T07:10:37.353Z,7.17
2018-04-29T07:13:04.825Z,6.97
2018-04-29T07:15:32.278Z,7.50
2018-04-29T07:17:59.762Z,7.70
2018-04-29T07:20:27.216Z,6.93
2018-04-29T07:22:54.699Z,7.50
2018-04-29T07:25:23.068Z,7.60
2018-04-29T07:27:50.541Z,7.63
2018-04-29T07:30:18.037Z,5.77
2018-04-29T07:32:45.518Z,7.67
2018-04-29T07:35:12.973Z,8.10
2018-04-29T07:37:40.451Z,8.27
2018-04-29T07:40:07.942Z,9.77
2018-04-29T07:42:35.428Z,7.20
2018-04-29T07:45:02.884Z,8.53
2018-04-29T07:47:30.381Z,7.47
2018-04-29T07:49:57.878Z,9.77
2018-04-29T07:52:25.416Z,7.13
2018-04-29T07:54:52.921Z,7.27
2018-04-29T07:57:20.437Z,7.67
2018-04-29T07:59:47.965Z,8.33
2018-04-29T08:02:15.441Z,8.20
2018-04-29T08:04:42.892Z,5.90
2018-04-29T08:07:10.372Z,7.43
2018-04-29T08:09:37.840Z,7.63
2018-04-29T08:12:05.318Z,7.37
2018-04-29T08:14:32.778Z,8.00
2018-04-29T08:17:00.258Z,7.03
2018-04-29T08:19:27.721Z,5.77
2018-04-29T08:21:55.178Z,7.33
2018-04-29T08:24:22.889Z,3.87
2018-04-29T08:26:50.342Z,7.03
2018-04-29T08:29:17.812Z,4.50
2018-04-29T08:31:45.275Z,5.47
2018-04-29T08:34:12.757Z,7.80
2018-04-29T08:36:40.222Z,6.47
2018-04-29T08:39:07.700Z,6.43
2018-04-29T08:41:35.156Z,6.93
2018-04-29T08:44:02.639Z,5.07
2018-04-29T08:46:30.235Z,6.43
2018-04-29T08:48:58.859Z,7.20
2018-04-29T08:51:26.397Z,6.90
2018-04-29T08:53:53.907Z,7.07
2018-04-29T08:56:21.503Z,5.83
2018-04-29T08:58:49.022Z,5.50
2018-04-29T09:01:16.592Z,5.23
2018-04-29T09:03:44.119Z,6.93
2018-04-29T09:06:11.604Z,5.87
2018-04-29T09:08:39.137Z,6.30
2018-04-29T09:11:06.669Z,6.83
2018-04-29T09:13:34.270Z,4.63
2018-04-29T09:16:01.796Z,7.03
2018-04-29T09:18:29.490Z,6.03
2018-04-29T09:20:57.154Z,6.53
2018-04-29T09:23:24.709Z,6.87
2018-04-29T09:25:52.375Z,5.20
2018-04-29T09:28:19.973Z,5.63
2018-04-29T09:30:51.974Z,6.37
2018-04-29T09:33:19.539Z,4.47
2018-04-29T09:35:47.174Z,5.97
2018-04-29T09:38:14.718Z,4.67
2018-04-29T09:40:42.282Z,7.60
2018-04-29T09:43:10.057Z,4.40
2018-04-29T09:45:37.654Z,7.07
2018-04-29T09:48:07.929Z,5.07
2018-04-29T09:50:35.550Z,6.97
2018-04-29T09:53:03.145Z,5.63
2018-04-29T09:55:30.742Z,5.63
2018-04-29T09:57:59.085Z,5.13
2018-04-29T10:00:27.418Z,6.37
2018-04-29T10:03:00.682Z,5.93
2018-04-29T10:05:28.305Z,5.73
2018-04-29T10:07:55.930Z,6.40
2018-04-29T10:10:25.090Z,4.60
2018-04-29T10:12:52.663Z,5.77
2018-04-29T10:15:20.194Z,5.50
2018-04-29T10:17:47.657Z,5.27
2018-04-29T10:20:15.185Z,6.07
2018-04-29T10:22:42.648Z,5.23
2018-04-29T10:25:10.133Z,4.80
2018-04-29T10:27:37.588Z,6.97
2018-04-29T10:30:05.057Z,4.07
2018-04-29T10:32:32.590Z,6.10
2018-04-29T10:35:00.115Z,12.47
2018-04-29T10:37:27.631Z,5.20
2018-04-29T10:39:55.106Z,9.03
2018-04-29T10:42:22.562Z,8.30
2018-04-29T10:44:50.053Z,6.07
2018-04-29T10:47:17.514Z,4.50
2018-04-29T10:49:57.487Z,5.53
2018-04-29T10:52:25.022Z,4.57
2018-04-29T10:54:52.498Z,4.70
2018-04-29T10:57:19.971Z,6.30
2018-04-29T10:59:47.445Z,6.90
2018-04-29T11:02:14.901Z,5.60
2018-04-29T11:04:42.385Z,7.33
2018-04-29T11:07:09.846Z,5.30
2018-04-29T11:09:37.367Z,5.17
2018-04-29T11:12:04.831Z,5.37
2018-04-29T11:14:32.307Z,6.40
2018-04-29T11:16:59.765Z,4.40
2018-04-29T11:19:27.238Z,6.77
2018-04-29T11:21:54.702Z,5.70
2018-04-29T11:24:22.187Z,6.20
2018-04-29T11:26:51.199Z,5.87
2018-04-29T11:29:18.693Z,6.63
2018-04-29T11:31:46.159Z,6.73
2018-04-29T11:34:13.613Z,6.70
2018-04-29T11:36:41.102Z,5.40
2018-04-29T11:39:08.563Z,6.27
2018-04-29T11:41:36.037Z,5.73
2018-04-29T11:44:03.490Z,5.13
2018-04-29T11:46:30.996Z,5.13
2018-04-29T11:48:58.457Z,8.17
2018-04-29T11:51:25.946Z,7.37
2018-04-29T11:53:53.438Z,7.77
2018-04-29T11:56:20.920Z,5.87
2018-04-29T11:58:48.386Z,5.30
2018-04-29T12:01:15.869Z,5.30
2018-04-29T12:03:43.358Z,6.67
2018-04-29T12:06:10.837Z,8.10
2018-04-29T12:08:38.326Z,6.63
2018-04-29T12:11:05.804Z,5.87
2018-04-29T12:13:33.265Z,5.87
2018-04-29T12:16:00.762Z,6.77
2018-04-29T12:18:28.226Z,7.27
2018-04-29T12:20:55.699Z,5.43
2018-04-29T12:23:23.154Z,6.47
2018-04-29T13:47:47.706Z,8.33
2018-04-29T13:50:15.263Z,6.43
2018-04-29T13:52:42.805Z,7.57
2018-04-29T13:55:10.347Z,7.83
2018-04-29T13:57:37.959Z,6.17
2018-04-29T14:00:05.978Z,6.43
2018-04-29T14:02:33.538Z,6.63
2018-04-29T14:05:01.054Z,6.73
2018-04-29T14:07:28.624Z,6.33
2018-04-29T14:09:56.131Z,5.97
2018-04-29T14:12:23.662Z,10.13
2018-04-29T14:14:51.551Z,8.30
2018-04-29T14:17:19.098Z,7.47
2018-04-29T14:19:46.637Z,7.33
2018-04-29T14:22:14.308Z,7.60
2018-04-29T14:24:41.788Z,7.37
2018-04-29T14:27:09.308Z,8.00
2018-04-29T14:29:36.814Z,7.87
2018-04-29T14:32:04.321Z,8.37
2018-04-29T14:34:31.805Z,7.77
2018-04-29T14:36:59.332Z,8.57
2018-04-29T14:39:26.871Z,8.83
2018-04-29T14:41:54.409Z,8.73
2018-04-29T14:44:21.933Z,8.37
2018-04-29T14:46:49.506Z,5.87
2018-04-29T14:49:17.071Z,12.77
2018-04-29T14:51:44.633Z,11.97
2018-04-29T14:54:12.166Z,6.53
2018-04-29T14:56:39.710Z,11.27
2018-04-29T14:59:07.254Z,10.83
2018-04-29T15:01:34.774Z,7.97
2018-04-29T15:04:02.362Z,8.87
2018-04-29T15:06:29.903Z,7.60
2018-04-29T15:08:57.421Z,7.87
2018-04-29T15:11:25.059Z,8.23
2018-04-29T15:13:52.643Z,8.93
2018-04-29T15:16:20.201Z,8.10
2018-04-29T15:19:00.103Z,7.87
2018-04-29T15:21:27.636Z,9.47
2018-04-29T15:23:55.177Z,8.07
2018-04-29T15:26:22.732Z,7.80
2018-04-29T15:28:50.270Z,8.43
2018-04-29T15:31:17.794Z,8.50
2018-04-29T15:33:45.310Z,6.50
2018-04-29T15:36:12.820Z,9.47
2018-04-29T15:38:40.366Z,7.80
2018-04-29T15:41:07.870Z,9.13
2018-04-29T15:43:35.437Z,9.90
2018-04-29T15:46:02.963Z,8.00
2018-04-29T15:48:30.517Z,7.20
2018-04-29T15:50:58.106Z,8.40
2018-04-29T15:53:25.638Z,6.67
2018-04-29T15:55:53.156Z,6.47
2018-04-29T15:58:20.701Z,7.40
2018-04-29T16:00:48.238Z,7.77
2018-04-29T16:03:15.801Z,9.43
2018-04-29T16:05:43.326Z,9.03
2018-04-29T16:08:10.910Z,7.07
2018-04-29T16:10:38.469Z,6.50
2018-04-29T16:13:06.027Z,6.30
2018-04-29T16:15:33.619Z,7.13
2018-04-29T16:18:01.137Z,8.90
2018-04-29T16:20:28.691Z,5.53
2018-04-29T16:22:56.230Z,6.83
2018-04-29T16:25:23.788Z,4.77
2018-04-29T16:27:51.918Z,5.43
2018-04-29T16:30:19.484Z,6.60
2018-04-29T16:32:47.011Z,5.83
2018-04-29T16:35:14.568Z,5.97
2018-04-29T16:37:42.041Z,5.33
2018-04-29T16:40:09.783Z,8.03
2018-04-29T16:42:37.322Z,7.50
2018-04-29T16:45:04.893Z,6.57
2018-04-29T16:47:32.407Z,8.57
2018-04-29T16:49:59.953Z,7.87
2018-04-29T16:52:27.408Z,6.03
2018-04-29T16:54:55.118Z,5.57
2018-04-29T16:57:22.945Z,6.70
2018-04-29T16:59:50.535Z,8.03
2018-04-29T17:02:18.111Z,6.07
2018-04-29T17:04:45.657Z,5.73
2018-04-29T17:07:13.174Z,7.97
2018-04-29T17:09:40.697Z,6.27
2018-04-29T17:12:08.222Z,5.77
2018-04-29T17:14:36.007Z,8.93
2018-04-29T17:17:03.524Z,5.73
2018-04-29T17:19:31.054Z,5.90
2018-04-29T17:21:58.608Z,6.33
2018-04-29T17:24:26.252Z,7.27
2018-04-29T17:26:53.840Z,7.00
2018-04-29T17:29:21.464Z,9.50
2018-04-29T17:31:48.903Z,6.93
2018-04-29T17:34:16.426Z,7.03
2018-04-29T17:36:43.945Z,6.23
2018-04-29T17:39:11.462Z,6.87
2018-04-29T17:41:38.992Z,6.63
2018-04-29T17:44:06.625Z,7.67
2018-04-29T17:46:34.159Z,9.63
2018-04-29T17:49:01.694Z,5.63
2018-04-29T17:51:29.251Z,6.33
2018-04-29T17:53:56.755Z,5.87
2018-04-29T17:56:24.305Z,6.43
2018-04-29T17:58:51.912Z,6.77
2018-04-29T18:01:20.474Z,6.50
2018-04-29T18:03:47.884Z,7.63
2018-04-29T18:06:15.435Z,5.43
2018-04-29T18:08:42.920Z,5.03
2018-04-29T18:11:10.437Z,6.30
2018-04-29T18:13:38.029Z,5.50
2018-04-29T18:16:05.604Z,7.10
2018-04-29T18:18:33.151Z,6.87
2018-04-29T18:21:00.886Z,5.57
2018-04-29T18:23:28.465Z,8.07
2018-04-29T18:25:56.063Z,5.10
2018-04-29T18:28:23.558Z,4.63
2018-04-29T18:30:51.095Z,5.63
2018-04-29T18:33:18.641Z,7.23
2018-04-29T18:35:46.169Z,5.93
2018-04-29T18:38:13.745Z,6.27
2018-04-29T18:40:41.290Z,5.07
2018-04-29T18:43:08.837Z,4.70
2018-04-29T18:45:36.378Z,8.97
2018-04-29T18:48:03.903Z,9.43
2018-04-29T18:50:31.632Z,4.70
2018-04-29T18:52:59.077Z,7.90
2018-04-29T18:55:26.636Z,5.80
2018-04-29T18:57:55.103Z,5.23
2018-04-29T19:00:22.679Z,8.27
2018-04-29T19:02:50.247Z,7.77
2018-04-29T19:05:17.777Z,7.23
2018-04-29T19:07:45.274Z,7.47
2018-04-29T19:10:12.831Z,7.07
2018-04-29T19:12:40.356Z,6.27
2018-04-29T19:15:07.839Z,7.00
2018-04-29T19:17:35.386Z,8.80
2018-04-29T19:20:02.920Z,5.90
2018-04-29T19:22:30.477Z,7.90
2018-04-29T19:25:04.141Z,7.27
2018-04-29T19:27:37.726Z,7.40
2018-04-29T19:30:05.262Z,9.80
2018-04-29T19:32:32.782Z,10.13
2018-04-29T19:35:00.292Z,10.87
2018-04-29T19:37:27.841Z,7.80
2018-04-29T19:39:55.336Z,10.67
2018-04-29T19:42:22.861Z,9.07
2018-04-29T19:44:50.385Z,10.00
2018-04-29T19:47:18.866Z,8.73
2018-04-29T19:49:46.452Z,10.40
2018-04-29T19:52:13.969Z,9.60
2018-04-29T19:54:41.491Z,10.50
2018-04-29T19:57:09.021Z,8.40
2018-04-29T19:59:37.195Z,17.80
2018-04-29T20:02:04.775Z,8.77
2018-04-29T20:04:32.269Z,10.10
2018-04-29T20:07:00.990Z,8.13
2018-04-29T20:09:28.538Z,8.27
2018-04-29T20:11:56.061Z,8.63
2018-04-29T20:14:23.585Z,10.70
2018-04-29T20:16:51.114Z,6.57
2018-04-29T20:19:18.646Z,6.43
2018-04-29T20:21:46.198Z,7.50
2018-04-29T20:24:13.757Z,7.63
2018-04-29T20:26:41.308Z,6.97
2018-04-29T20:29:08.895Z,8.70
2018-04-29T20:31:36.434Z,8.93
2018-04-29T20:34:03.951Z,8.47
2018-04-29T20:36:31.450Z,7.30
2018-04-29T20:39:00.054Z,6.67
2018-04-29T20:41:27.656Z,6.10
2018-04-29T20:43:55.202Z,7.40
2018-04-29T20:46:22.718Z,9.77
2018-04-29T20:48:50.266Z,6.53
2018-04-29T20:51:17.795Z,9.17
2018-04-29T20:53:45.384Z,8.17
2018-04-29T20:56:12.902Z,7.63
2018-04-29T20:58:40.415Z,5.97
2018-04-29T21:01:07.951Z,5.67
2018-04-29T21:03:35.480Z,6.77
2018-04-29T21:06:02.974Z,7.53
2018-04-29T21:08:30.496Z,7.33
2018-04-29T21:10:58.005Z,10.93
2018-04-29T21:13:25.521Z,9.50
2018-04-29T21:15:53.077Z,10.63
2018-04-29T21:18:20.655Z,10.23
2018-04-29T21:20:48.239Z,11.53
2018-04-29T21:23:15.791Z,10.83
2018-04-29T21:25:43.356Z,9.93
2018-04-29T21:28:10.893Z,10.83
2018-04-29T21:30:38.395Z,15.77
2018-04-29T21:33:06.262Z,11.53
2018-04-29T21:35:33.836Z,15.40
2018-04-29T21:38:01.408Z,14.40
2018-04-29T21:40:28.866Z,12.63
2018-04-29T21:42:56.423Z,14.43
2018-04-29T21:45:23.931Z,15.13
2018-04-29T21:47:51.454Z,14.47
2018-04-29T21:50:18.966Z,15.97
2018-04-29T21:52:47.484Z,19.03
2018-04-29T21:55:15.983Z,20.40
2018-04-29T21:57:43.547Z,25.60
2018-04-29T22:00:11.160Z,32.80
2018-04-29T22:02:38.735Z,36.73
2018-04-29T22:05:06.421Z,35.20
2018-04-29T22:07:33.995Z,39.27
2018-04-29T22:10:01.556Z,39.23
2018-04-29T22:12:29.162Z,32.93
2018-04-29T22:14:56.743Z,33.00
2018-04-29T22:17:24.308Z,26.30
2018-04-29T22:19:51.912Z,18.00
2018-04-29T22:22:19.494Z,16.23
2018-04-29T22:24:47.075Z,18.67
2018-04-29T22:27:14.772Z,17.20
2018-04-29T22:29:42.446Z,18.53
2018-04-29T22:32:10.000Z,14.83
2018-04-29T22:34:37.535Z,14.37
2018-04-29T22:37:05.131Z,12.33
2018-04-29T22:39:33.107Z,10.53
2018-04-29T22:42:00.602Z,4.87
2018-04-29T22:44:28.158Z,5.87
2018-04-29T22:46:55.654Z,5.30
2018-04-29T22:49:23.187Z,9.40
2018-04-29T22:51:50.689Z,7.70
2018-04-29T22:54:18.223Z,4.33
2018-04-29T22:56:45.720Z,5.67
2018-04-29T22:59:13.218Z,5.70
2018-04-29T23:01:40.727Z,4.70
2018-04-29T23:04:08.227Z,6.43
2018-04-29T23:06:36.083Z,4.10
2018-04-29T23:09:03.630Z,6.90
2018-04-29T23:11:31.634Z,7.93
2018-04-29T23:13:59.721Z,9.13
2018-04-29T23:16:27.214Z,13.93
2018-04-29T23:18:54.728Z,12.43
2018-04-29T23:21:22.310Z,13.57
2018-04-29T23:23:49.895Z,17.13
2018-04-29T23:26:17.491Z,15.50
2018-04-29T23:28:45.037Z,14.80
2018-04-29T23:31:12.563Z,14.73
2018-04-29T23:33:40.068Z,15.50
2018-04-29T23:36:07.702Z,15.73
2018-04-29T23:38:35.330Z,16.27
2018-04-29T23:41:02.836Z,18.03
2018-04-29T23:43:30.375Z,16.30
2018-04-29T23:45:57.974Z,17.33
2018-04-29T23:48:25.544Z,14.53
2018-04-29T23:50:53.093Z,17.90
2018-04-29T23:53:20.721Z,19.90
2018-04-29T23:55:48.311Z,16.50
2018-04-29T23:58:15.819Z,15.77
